createdAt,value
2023-02-28T00:00:15.665Z,5.55
2023-02-28T00:01:17.154Z,5.13
2023-02-28T00:02:19.885Z,5.15
2023-02-28T00:03:22.452Z,5.68
2023-02-28T00:04:24.020Z,5.63
2023-02-28T00:05:28.228Z,4.95
2023-02-28T00:06:29.866Z,5.47
2023-02-28T00:07:32.854Z,5.40
2023-02-28T00:08:34.671Z,5.97
2023-02-28T00:09:37.264Z,5.95
2023-02-28T00:10:39.458Z,5.65
2023-02-28T00:11:42.449Z,5.90
2023-02-28T00:12:45.390Z,5.43
2023-02-28T00:13:49.449Z,4.97
2023-02-28T00:14:51.079Z,5.00
2023-02-28T00:16:02.202Z,4.90
2023-02-28T00:17:03.757Z,4.72
2023-02-28T00:18:07.163Z,4.88
2023-02-28T00:19:09.021Z,5.18
2023-02-28T00:20:14.174Z,5.13
2023-02-28T00:21:16.440Z,5.43
2023-02-28T00:22:20.206Z,5.15
2023-02-28T00:23:21.767Z,6.03
2023-02-28T00:24:24.227Z,5.60
2023-02-28T00:25:26.481Z,5.93
2023-02-28T00:26:29.186Z,5.43
2023-02-28T00:27:30.859Z,5.30
2023-02-28T00:28:34.910Z,5.30
2023-02-28T00:29:36.468Z,6.15
2023-02-28T00:30:38.922Z,5.18
2023-02-28T00:31:40.551Z,5.35
2023-02-28T00:32:43.305Z,5.72
2023-02-28T00:33:44.845Z,5.05
2023-02-28T00:34:47.365Z,5.63
2023-02-28T00:35:49.779Z,5.35
2023-02-28T00:36:52.337Z,4.90
2023-02-28T00:37:53.853Z,5.13
2023-02-28T00:38:56.410Z,5.80
2023-02-28T00:39:58.103Z,5.10
2023-02-28T00:41:05.584Z,5.30
2023-02-28T00:42:08.500Z,5.20
2023-02-28T00:43:11.072Z,5.25
2023-02-28T00:44:14.001Z,4.68
2023-02-28T00:45:16.585Z,5.38
2023-02-28T00:46:18.263Z,4.95
2023-02-28T00:47:20.730Z,5.63
2023-02-28T00:48:22.418Z,5.00
2023-02-28T00:49:25.320Z,5.00
2023-02-28T00:50:27.166Z,5.10
2023-02-28T00:51:30.269Z,5.18
2023-02-28T00:52:32.019Z,5.47
2023-02-28T00:53:34.577Z,5.43
2023-02-28T00:54:36.472Z,5.60
2023-02-28T00:55:38.899Z,5.63
2023-02-28T00:56:40.422Z,5.55
2023-02-28T00:57:42.994Z,5.25
2023-02-28T00:58:44.488Z,5.40
2023-02-28T00:59:48.331Z,5.15
2023-02-28T01:00:50.130Z,5.22
2023-02-28T01:01:53.080Z,4.95
2023-02-28T01:02:55.557Z,5.70
2023-02-28T01:03:57.345Z,5.53
2023-02-28T01:04:59.871Z,5.28
2023-02-28T01:06:02.393Z,5.15
2023-02-28T01:07:04.386Z,4.30
2023-02-28T01:08:07.383Z,5.15
2023-02-28T01:09:09.349Z,5.32
2023-02-28T01:10:12.921Z,4.60
2023-02-28T01:11:17.583Z,5.20
2023-02-28T01:12:20.353Z,5.15
2023-02-28T01:13:24.196Z,5.35
2023-02-28T01:14:26.826Z,5.90
2023-02-28T01:15:32.934Z,4.97
2023-02-28T01:16:34.515Z,4.68
2023-02-28T01:17:37.990Z,4.68
2023-02-28T01:18:41.421Z,5.13
2023-02-28T01:19:44.449Z,4.28
2023-02-28T01:20:47.091Z,4.38
2023-02-28T01:21:49.543Z,4.10
2023-02-28T01:22:51.134Z,3.88
2023-02-28T01:23:53.647Z,3.97
2023-02-28T01:24:55.264Z,4.03
2023-02-28T01:25:57.758Z,3.75
2023-02-28T01:26:59.558Z,3.97
2023-02-28T01:28:02.103Z,4.07
2023-02-28T01:29:04.005Z,3.50
2023-02-28T01:30:07.696Z,3.63
2023-02-28T01:31:11.495Z,3.65
2023-02-28T01:32:14.065Z,3.40
2023-02-28T01:33:16.177Z,3.75
2023-02-28T01:34:20.105Z,3.65
2023-02-28T01:35:21.634Z,3.75
2023-02-28T01:36:26.142Z,3.40
2023-02-28T01:37:28.099Z,3.53
2023-02-28T01:38:31.410Z,3.17
2023-02-28T01:39:32.959Z,3.10
2023-02-28T01:40:35.746Z,3.50
2023-02-28T01:41:37.415Z,4.07
2023-02-28T01:42:40.021Z,3.28
2023-02-28T01:43:56.256Z,3.35
2023-02-28T01:45:23.333Z,3.72
2023-02-28T01:46:26.376Z,3.47
2023-02-28T01:47:33.439Z,3.42
2023-02-28T01:48:38.490Z,3.38
2023-02-28T01:49:41.347Z,3.42
2023-02-28T01:50:46.204Z,3.40
2023-02-28T01:51:52.801Z,3.58
2023-02-28T01:52:57.366Z,2.97
2023-02-28T01:54:03.736Z,3.83
2023-02-28T01:55:07.998Z,3.20
2023-02-28T01:56:12.758Z,3.20
2023-02-28T01:57:17.738Z,3.30
2023-02-28T01:58:20.560Z,3.55
2023-02-28T01:59:27.166Z,3.40
2023-02-28T02:00:31.876Z,3.75
2023-02-28T02:01:35.091Z,3.03
2023-02-28T02:02:38.908Z,3.47
2023-02-28T02:03:40.464Z,3.30
2023-02-28T02:04:52.100Z,3.22
2023-02-28T02:05:53.649Z,3.30
2023-02-28T02:06:57.097Z,3.35
2023-02-28T02:08:04.070Z,3.15
2023-02-28T02:09:07.235Z,2.67
2023-02-28T02:10:15.794Z,2.80
2023-02-28T02:11:20.814Z,3.20
2023-02-28T02:12:34.653Z,2.55
2023-02-28T02:13:56.213Z,2.90
2023-02-28T02:15:06.512Z,3.05
2023-02-28T02:16:22.675Z,2.30
2023-02-28T02:17:33.330Z,2.83
2023-02-28T02:18:42.975Z,2.17
2023-02-28T02:20:09.625Z,2.88
2023-02-28T02:21:46.084Z,2.63
2023-02-28T02:23:10.534Z,3.28
2023-02-28T02:24:58.329Z,2.65
2023-02-28T02:26:12.752Z,2.83
2023-02-28T02:27:43.118Z,2.95
2023-02-28T02:29:31.980Z,2.88
2023-02-28T02:31:02.642Z,2.58
2023-02-28T02:32:26.843Z,1.95
2023-02-28T02:33:55.898Z,2.75
2023-02-28T02:35:08.942Z,2.70
2023-02-28T02:36:19.345Z,2.95
2023-02-28T02:37:32.337Z,2.17
2023-02-28T02:38:40.445Z,2.40
2023-02-28T02:39:51.717Z,2.97
2023-02-28T02:41:00.271Z,2.50
2023-02-28T02:42:06.513Z,2.72
2023-02-28T02:43:15.638Z,2.90
2023-02-28T02:44:23.800Z,2.70
2023-02-28T02:45:31.021Z,3.03
2023-02-28T02:46:35.648Z,2.33
2023-02-28T02:47:41.158Z,2.65
2023-02-28T02:48:45.373Z,2.90
2023-02-28T02:49:51.521Z,2.58
2023-02-28T02:50:57.606Z,2.65
2023-02-28T02:52:05.279Z,2.85
2023-02-28T02:53:09.989Z,2.80
2023-02-28T02:54:17.910Z,2.72
2023-02-28T02:55:23.568Z,2.67
2023-02-28T02:56:30.509Z,2.70
2023-02-28T02:57:37.017Z,3.03
2023-02-28T02:58:44.268Z,3.08
2023-02-28T02:59:45.988Z,2.90
2023-02-28T03:00:54.102Z,3.22
2023-02-28T03:01:59.354Z,3.08
2023-02-28T03:03:03.397Z,3.63
2023-02-28T03:04:19.640Z,2.97
2023-02-28T03:05:25.753Z,3.15
2023-02-28T03:06:28.796Z,2.90
2023-02-28T03:07:31.475Z,3.05
2023-02-28T03:08:37.343Z,3.17
2023-02-28T03:09:39.457Z,3.22
2023-02-28T03:10:44.043Z,2.95
2023-02-28T03:11:45.630Z,2.92
2023-02-28T03:12:58.068Z,3.13
2023-02-28T03:14:24.569Z,2.60
2023-02-28T03:15:33.313Z,3.30
2023-02-28T03:16:44.021Z,3.20
2023-02-28T03:18:03.437Z,3.15
2023-02-28T03:19:30.452Z,3.15
2023-02-28T03:20:44.343Z,3.28
2023-02-28T03:21:56.330Z,2.90
2023-02-28T03:23:09.232Z,3.42
2023-02-28T03:24:15.718Z,2.83
2023-02-28T03:25:23.138Z,3.20
2023-02-28T03:26:28.831Z,3.33
2023-02-28T03:27:34.273Z,3.00
2023-02-28T03:28:46.411Z,2.90
2023-02-28T03:29:56.337Z,2.90
2023-02-28T03:31:03.395Z,2.40
2023-02-28T03:32:15.530Z,3.25
2023-02-28T03:33:24.115Z,3.33
2023-02-28T03:34:30.499Z,3.20
2023-02-28T03:35:36.526Z,3.30
2023-02-28T03:36:44.963Z,3.20
2023-02-28T03:37:52.190Z,3.50
2023-02-28T03:38:58.646Z,3.08
2023-02-28T03:40:07.425Z,2.97
2023-02-28T03:41:15.098Z,3.53
2023-02-28T03:42:21.763Z,3.50
2023-02-28T03:43:28.108Z,3.58
2023-02-28T03:44:36.867Z,3.60
2023-02-28T03:45:40.638Z,3.25
2023-02-28T03:46:50.695Z,3.53
2023-02-28T03:47:56.308Z,3.72
2023-02-28T03:49:04.317Z,3.40
2023-02-28T03:50:11.444Z,3.55
2023-02-28T03:51:19.748Z,3.33
2023-02-28T03:52:28.051Z,3.58
2023-02-28T03:53:36.998Z,3.85
2023-02-28T03:54:43.743Z,3.78
2023-02-28T03:55:49.202Z,3.60
2023-02-28T03:56:57.462Z,3.42
2023-02-28T03:58:06.698Z,3.90
2023-02-28T03:59:15.714Z,3.88
2023-02-28T04:00:21.749Z,3.55
2023-02-28T04:01:30.317Z,3.40
2023-02-28T04:02:32.377Z,3.45
2023-02-28T04:03:34.974Z,3.63
2023-02-28T04:04:36.934Z,3.45
2023-02-28T04:05:51.835Z,3.60
2023-02-28T04:07:01.185Z,3.40
2023-02-28T04:08:08.248Z,3.60
2023-02-28T04:10:16.664Z,3.45
2023-02-28T04:11:23.271Z,3.45
2023-02-28T04:12:25.903Z,3.58
2023-02-28T04:13:27.381Z,3.22
2023-02-28T04:14:29.828Z,3.35
2023-02-28T04:15:31.396Z,3.67
2023-02-28T04:16:36.172Z,3.58
2023-02-28T04:17:38.181Z,3.42
2023-02-28T04:18:40.897Z,3.65
2023-02-28T04:19:42.445Z,3.53
2023-02-28T04:20:44.894Z,3.90
2023-02-28T04:21:50.009Z,3.55
2023-02-28T04:22:51.792Z,3.35
2023-02-28T04:23:54.642Z,3.38
2023-02-28T04:24:57.479Z,4.35
2023-02-28T04:26:00.074Z,3.25
2023-02-28T04:27:01.715Z,4.35
2023-02-28T04:28:05.043Z,4.22
2023-02-28T04:29:08.214Z,4.32
2023-02-28T04:30:12.179Z,4.57
2023-02-28T04:31:13.797Z,4.50
2023-02-28T04:32:16.486Z,4.45
2023-02-28T04:33:18.025Z,4.60
2023-02-28T04:34:22.085Z,4.53
2023-02-28T04:35:23.679Z,4.50
2023-02-28T04:36:26.816Z,4.63
2023-02-28T04:37:29.851Z,3.75
2023-02-28T04:38:33.700Z,3.80
2023-02-28T04:39:38.397Z,3.63
2023-02-28T04:40:41.283Z,3.90
2023-02-28T04:41:43.988Z,3.97
2023-02-28T04:42:45.530Z,3.95
2023-02-28T04:43:48.228Z,4.63
2023-02-28T04:44:49.767Z,4.07
2023-02-28T04:45:52.286Z,3.53
2023-02-28T04:46:53.855Z,3.60
2023-02-28T04:47:56.348Z,4.00
2023-02-28T04:48:57.901Z,4.15
2023-02-28T04:50:00.387Z,4.00
2023-02-28T04:51:02.469Z,3.75
2023-02-28T04:52:04.990Z,4.00
2023-02-28T04:53:06.506Z,3.53
2023-02-28T04:54:09.699Z,3.58
2023-02-28T04:55:11.349Z,3.72
2023-02-28T04:56:16.804Z,4.15
2023-02-28T04:57:18.328Z,3.55
2023-02-28T04:58:20.780Z,3.40
2023-02-28T04:59:22.324Z,3.80
2023-02-28T05:00:26.108Z,3.80
2023-02-28T05:01:29.887Z,4.07
2023-02-28T05:02:32.640Z,4.10
2023-02-28T05:03:34.171Z,3.90
2023-02-28T05:04:36.760Z,3.55
2023-02-28T05:05:38.832Z,3.95
2023-02-28T05:06:41.327Z,3.85
2023-02-28T05:07:42.869Z,3.92
2023-02-28T05:08:45.679Z,3.72
2023-02-28T05:09:47.316Z,3.90
2023-02-28T05:10:49.812Z,3.97
2023-02-28T05:11:52.904Z,3.70
2023-02-28T05:12:55.662Z,4.35
2023-02-28T05:13:57.470Z,3.33
2023-02-28T05:15:00.024Z,3.72
2023-02-28T05:16:01.539Z,3.75
2023-02-28T05:17:03.966Z,4.10
2023-02-28T05:18:05.552Z,4.25
2023-02-28T05:19:08.086Z,3.92
2023-02-28T05:20:15.566Z,3.92
2023-02-28T05:21:28.702Z,4.07
2023-02-28T05:22:30.517Z,4.30
2023-02-28T05:23:33.431Z,3.63
2023-02-28T05:24:35.008Z,4.28
2023-02-28T05:25:37.694Z,4.10
2023-02-28T05:26:41.584Z,4.50
2023-02-28T05:27:45.768Z,3.92
2023-02-28T05:28:47.287Z,4.15
2023-02-28T05:29:49.738Z,4.25
2023-02-28T05:30:51.292Z,3.95
2023-02-28T05:31:54.049Z,3.60
2023-02-28T05:32:55.600Z,3.92
2023-02-28T05:33:58.186Z,4.05
2023-02-28T05:34:59.665Z,3.60
2023-02-28T05:36:02.564Z,3.88
2023-02-28T05:37:04.232Z,4.38
2023-02-28T05:38:06.734Z,3.30
2023-02-28T05:39:08.412Z,3.97
2023-02-28T05:40:12.343Z,4.38
2023-02-28T05:41:13.865Z,3.78
2023-02-28T05:42:16.369Z,3.55
2023-02-28T05:43:19.205Z,4.30
2023-02-28T05:44:21.661Z,3.70
2023-02-28T05:45:23.237Z,3.88
2023-02-28T05:46:25.705Z,4.07
2023-02-28T05:47:27.278Z,4.18
2023-02-28T05:48:29.731Z,3.90
2023-02-28T05:49:31.298Z,4.45
2023-02-28T05:50:33.773Z,4.05
2023-02-28T05:51:37.251Z,3.95
2023-02-28T05:52:39.845Z,4.00
2023-02-28T05:53:41.696Z,3.65
2023-02-28T05:54:44.114Z,4.18
2023-02-28T05:55:45.628Z,4.63
2023-02-28T05:56:48.085Z,4.50
2023-02-28T05:57:49.652Z,4.60
2023-02-28T05:58:53.507Z,4.72
2023-02-28T05:59:55.047Z,4.43
2023-02-28T06:00:57.690Z,4.15
2023-02-28T06:01:59.315Z,4.05
2023-02-28T06:03:03.225Z,4.10
2023-02-28T06:04:06.580Z,4.05
2023-02-28T06:05:13.202Z,3.80
2023-02-28T06:06:14.796Z,4.18
2023-02-28T06:07:18.668Z,3.72
2023-02-28T06:08:20.503Z,4.00
2023-02-28T06:09:22.985Z,3.75
2023-02-28T06:10:25.495Z,3.72
2023-02-28T06:11:28.677Z,4.22
2023-02-28T06:12:31.654Z,3.67
2023-02-28T06:13:33.215Z,4.00
2023-02-28T06:14:37.534Z,4.25
2023-02-28T06:15:39.373Z,4.22
2023-02-28T06:16:42.045Z,4.28
2023-02-28T06:17:44.551Z,4.03
2023-02-28T06:18:46.980Z,3.53
2023-02-28T06:19:49.162Z,4.50
2023-02-28T06:20:55.525Z,4.05
2023-02-28T06:21:57.950Z,3.80
2023-02-28T06:23:01.181Z,4.03
2023-02-28T06:24:05.008Z,3.92
2023-02-28T06:25:07.981Z,3.72
2023-02-28T06:26:10.609Z,4.28
2023-02-28T06:27:12.127Z,4.43
2023-02-28T06:28:14.935Z,4.25
2023-02-28T06:29:18.028Z,4.15
2023-02-28T06:30:25.636Z,4.20
2023-02-28T06:31:27.783Z,4.20
2023-02-28T06:32:30.366Z,4.28
2023-02-28T06:33:31.966Z,4.20
2023-02-28T06:34:35.677Z,4.70
2023-02-28T06:35:37.220Z,4.47
2023-02-28T06:36:39.749Z,4.45
2023-02-28T06:37:41.911Z,4.28
2023-02-28T06:38:45.699Z,4.55
2023-02-28T06:39:47.371Z,4.93
2023-02-28T06:40:55.416Z,4.57
2023-02-28T06:41:58.191Z,4.03
2023-02-28T06:42:59.949Z,4.03
2023-02-28T06:44:02.419Z,4.85
2023-02-28T06:45:10.107Z,4.38
2023-02-28T06:46:15.864Z,4.85
2023-02-28T06:47:17.499Z,4.10
2023-02-28T06:48:20.054Z,4.00
2023-02-28T06:49:22.717Z,4.68
2023-02-28T06:50:24.287Z,4.30
2023-02-28T06:51:28.305Z,4.82
2023-02-28T06:52:29.957Z,4.32
2023-02-28T06:53:32.722Z,4.43
2023-02-28T06:54:35.200Z,4.63
2023-02-28T06:55:38.865Z,4.50
2023-02-28T06:56:41.429Z,4.38
2023-02-28T06:57:42.960Z,4.93
2023-02-28T06:58:48.854Z,4.53
2023-02-28T06:59:50.477Z,4.53
2023-02-28T07:00:53.810Z,4.53
2023-02-28T07:01:56.850Z,3.85
2023-02-28T07:02:59.328Z,4.20
2023-02-28T07:04:01.590Z,4.30
2023-02-28T07:05:04.290Z,4.35
2023-02-28T07:06:06.436Z,4.50
2023-02-28T07:07:08.889Z,4.22
2023-02-28T07:08:10.551Z,4.25
2023-02-28T07:09:13.186Z,4.22
2023-02-28T07:10:19.820Z,4.63
2023-02-28T07:11:24.252Z,4.18
2023-02-28T07:12:25.824Z,4.13
2023-02-28T07:13:28.358Z,4.40
2023-02-28T07:14:30.891Z,4.35
2023-02-28T07:15:32.441Z,4.50
2023-02-28T07:16:35.152Z,4.75
2023-02-28T07:17:38.003Z,4.22
2023-02-28T07:18:40.473Z,4.88
2023-02-28T07:19:42.059Z,5.05
2023-02-28T07:20:44.533Z,5.28
2023-02-28T07:21:47.131Z,4.80
2023-02-28T07:22:56.022Z,5.93
2023-02-28T07:23:58.777Z,5.60
2023-02-28T07:25:00.297Z,5.10
2023-02-28T07:26:03.312Z,4.40
2023-02-28T07:27:04.931Z,5.18
2023-02-28T07:28:07.393Z,4.60
2023-02-28T07:29:09.033Z,5.13
2023-02-28T07:30:13.018Z,5.10
2023-02-28T07:31:15.820Z,4.32
2023-02-28T07:32:18.344Z,4.65
2023-02-28T07:33:21.365Z,5.07
2023-02-28T07:34:24.581Z,5.22
2023-02-28T07:35:26.147Z,4.95
2023-02-28T07:36:28.599Z,4.45
2023-02-28T07:37:32.374Z,4.50
2023-02-28T07:38:36.013Z,4.22
2023-02-28T07:39:37.604Z,4.40
2023-02-28T07:40:40.082Z,4.55
2023-02-28T07:41:44.563Z,4.38
2023-02-28T07:42:47.185Z,4.50
2023-02-28T07:43:50.184Z,4.65
2023-02-28T07:44:54.215Z,4.90
2023-02-28T07:45:56.243Z,4.55
2023-02-28T07:46:58.847Z,4.47
2023-02-28T07:48:01.314Z,4.50
2023-02-28T07:49:04.328Z,5.45
2023-02-28T07:50:07.936Z,4.60
2023-02-28T07:51:09.925Z,4.43
2023-02-28T07:52:12.467Z,4.53
2023-02-28T07:53:14.986Z,4.35
2023-02-28T07:54:16.516Z,4.50
2023-02-28T07:55:19.215Z,5.10
2023-02-28T07:56:20.873Z,5.05
2023-02-28T07:57:23.400Z,4.57
2023-02-28T07:58:26.045Z,4.50
2023-02-28T07:59:30.565Z,4.72
2023-02-28T08:00:34.422Z,4.78
2023-02-28T08:01:36.998Z,4.95
2023-02-28T08:02:45.723Z,4.28
2023-02-28T08:03:48.431Z,4.53
2023-02-28T08:04:51.399Z,4.45
2023-02-28T08:05:54.504Z,4.75
2023-02-28T08:06:57.680Z,4.78
2023-02-28T08:07:59.355Z,4.60
2023-02-28T08:09:01.787Z,4.63
2023-02-28T08:10:03.747Z,5.40
2023-02-28T08:11:06.489Z,4.75
2023-02-28T08:12:09.624Z,4.50
2023-02-28T08:13:11.243Z,4.63
2023-02-28T08:14:13.707Z,5.03
2023-02-28T08:15:16.722Z,4.32
2023-02-28T08:16:22.943Z,4.63
2023-02-28T08:17:25.626Z,5.20
2023-02-28T08:18:28.139Z,5.10
2023-02-28T08:19:30.017Z,4.90
2023-02-28T08:20:35.270Z,5.28
2023-02-28T08:21:37.136Z,4.88
2023-02-28T08:22:39.884Z,4.72
2023-02-28T08:23:42.481Z,4.70
2023-02-28T08:24:44.956Z,4.63
2023-02-28T08:25:54.377Z,4.45
2023-02-28T08:26:57.329Z,4.95
2023-02-28T08:27:58.925Z,5.18
2023-02-28T08:29:01.786Z,5.45
2023-02-28T08:30:04.672Z,4.97
2023-02-28T08:31:20.955Z,4.95
2023-02-28T08:32:29.904Z,4.82
2023-02-28T08:33:32.429Z,5.10
2023-02-28T08:34:35.102Z,4.95
2023-02-28T08:35:38.620Z,4.60
2023-02-28T08:36:41.798Z,4.95
2023-02-28T08:37:44.278Z,5.30
2023-02-28T08:38:46.962Z,4.72
2023-02-28T08:39:49.419Z,4.85
2023-02-28T08:40:57.851Z,4.95
2023-02-28T08:42:07.291Z,4.43
2023-02-28T08:43:09.402Z,3.10
2023-02-28T08:44:11.985Z,4.38
2023-02-28T08:45:15.223Z,5.00
2023-02-28T08:46:16.895Z,4.75
2023-02-28T08:47:19.617Z,4.00
2023-02-28T08:48:22.117Z,5.05
2023-02-28T08:49:24.605Z,4.55
2023-02-28T08:50:26.175Z,4.60
2023-02-28T08:51:31.021Z,4.90
2023-02-28T08:52:33.731Z,5.78
2023-02-28T08:53:36.211Z,5.15
2023-02-28T08:54:38.706Z,3.88
2023-02-28T08:55:41.195Z,3.92
2023-02-28T08:56:43.658Z,4.35
2023-02-28T08:57:45.154Z,4.78
2023-02-28T08:58:48.766Z,4.30
2023-02-28T08:59:52.437Z,4.40
2023-02-28T09:00:54.578Z,4.97
2023-02-28T09:01:57.631Z,5.25
2023-02-28T09:02:59.230Z,5.22
2023-02-28T09:04:02.703Z,4.57
2023-02-28T09:05:06.176Z,3.85
2023-02-28T09:06:08.814Z,4.22
2023-02-28T09:07:12.826Z,3.78
2023-02-28T09:08:16.141Z,4.25
2023-02-28T09:09:29.746Z,4.22
2023-02-28T09:10:31.321Z,3.97
2023-02-28T09:11:34.597Z,3.83
2023-02-28T09:12:36.625Z,4.22
2023-02-28T09:13:39.963Z,4.38
2023-02-28T09:14:42.742Z,3.90
2023-02-28T09:15:44.321Z,3.80
2023-02-28T09:16:47.332Z,3.97
2023-02-28T09:17:49.976Z,4.30
2023-02-28T09:18:51.506Z,4.07
2023-02-28T09:19:53.949Z,4.03
2023-02-28T09:20:56.472Z,3.83
2023-02-28T09:21:58.903Z,3.90
2023-02-28T09:23:01.747Z,4.30
2023-02-28T09:24:04.698Z,3.67
2023-02-28T09:25:06.677Z,3.83
2023-02-28T09:26:10.696Z,3.97
2023-02-28T09:27:13.163Z,3.60
2023-02-28T09:28:16.865Z,3.83
2023-02-28T09:29:19.334Z,3.58
2023-02-28T09:30:21.851Z,3.50
2023-02-28T09:31:25.758Z,3.83
2023-02-28T09:32:28.311Z,3.92
2023-02-28T09:33:30.051Z,3.60
2023-02-28T09:34:32.760Z,3.65
2023-02-28T09:35:34.513Z,3.30
2023-02-28T09:36:45.315Z,3.85
2023-02-28T09:37:49.466Z,3.80
2023-02-28T09:38:54.040Z,3.30
2023-02-28T09:39:56.702Z,3.50
2023-02-28T09:41:01.585Z,3.33
2023-02-28T09:42:05.840Z,3.45
2023-02-28T09:43:14.654Z,3.40
2023-02-28T09:44:23.216Z,3.15
2023-02-28T09:45:29.711Z,3.40
2023-02-28T09:46:37.270Z,3.40
2023-02-28T09:47:42.520Z,2.67
2023-02-28T09:48:49.214Z,3.13
2023-02-28T09:49:52.335Z,3.28
2023-02-28T09:51:01.159Z,3.65
2023-02-28T09:52:06.335Z,3.28
2023-02-28T09:53:18.214Z,3.50
2023-02-28T09:54:26.374Z,3.70
2023-02-28T09:55:35.316Z,3.95
2023-02-28T09:56:44.551Z,3.05
2023-02-28T09:57:48.112Z,3.30
2023-02-28T09:58:54.463Z,3.10
2023-02-28T10:00:09.466Z,3.50
2023-02-28T10:01:20.710Z,3.00
2023-02-28T10:02:46.520Z,3.38
2023-02-28T10:03:58.922Z,3.50
2023-02-28T10:05:06.771Z,3.75
2023-02-28T10:06:16.458Z,3.75
2023-02-28T10:07:37.033Z,3.63
2023-02-28T10:08:46.136Z,3.63
2023-02-28T10:09:54.342Z,4.63
2023-02-28T10:10:59.658Z,4.18
2023-02-28T10:12:04.816Z,4.20
2023-02-28T10:13:16.839Z,4.30
2023-02-28T10:14:21.373Z,3.80
2023-02-28T10:15:27.260Z,4.55
2023-02-28T10:16:35.290Z,4.40
2023-02-28T10:17:54.767Z,4.03
2023-02-28T10:19:01.768Z,3.15
2023-02-28T10:20:12.026Z,4.07
2023-02-28T10:21:21.942Z,3.42
2023-02-28T10:22:28.409Z,4.45
2023-02-28T10:23:35.879Z,3.75
2023-02-28T10:24:42.770Z,4.22
2023-02-28T10:25:55.219Z,4.20
2023-02-28T10:27:02.302Z,4.47
2023-02-28T10:28:12.256Z,4.32
2023-02-28T10:29:15.159Z,4.35
2023-02-28T10:30:16.986Z,4.65
2023-02-28T10:31:21.397Z,4.38
2023-02-28T10:32:29.173Z,4.50
2023-02-28T10:33:35.175Z,4.38
2023-02-28T10:34:38.039Z,4.25
2023-02-28T10:35:39.573Z,4.60
2023-02-28T10:36:49.897Z,4.65
2023-02-28T10:37:55.409Z,3.78
2023-02-28T10:38:58.049Z,4.93
2023-02-28T10:39:59.750Z,4.65
2023-02-28T10:41:09.775Z,4.72
2023-02-28T10:42:27.016Z,3.55
2023-02-28T10:43:29.063Z,4.57
2023-02-28T10:44:31.760Z,4.47
2023-02-28T10:45:36.037Z,5.55
2023-02-28T10:46:38.619Z,4.65
2023-02-28T10:47:53.987Z,4.68
2023-02-28T10:49:05.085Z,4.60
2023-02-28T10:50:07.297Z,3.22
2023-02-28T10:51:12.339Z,4.35
2023-02-28T10:52:15.238Z,4.10
2023-02-28T10:54:00.539Z,4.75
2023-02-28T10:55:21.799Z,4.78
2023-02-28T10:56:26.676Z,4.80
2023-02-28T10:57:31.787Z,4.13
2023-02-28T10:58:49.820Z,4.25
2023-02-28T10:59:55.909Z,4.47
2023-02-28T11:00:58.368Z,4.72
2023-02-28T11:02:01.038Z,4.63
2023-02-28T11:03:02.821Z,5.53
2023-02-28T11:04:05.697Z,4.75
2023-02-28T11:05:26.485Z,4.28
2023-02-28T11:06:32.676Z,3.53
2023-02-28T11:07:50.500Z,4.78
2023-02-28T11:08:56.965Z,5.00
2023-02-28T11:09:59.667Z,4.13
2023-02-28T11:11:06.975Z,4.63
2023-02-28T11:12:23.587Z,4.10
2023-02-28T11:13:28.857Z,4.25
2023-02-28T11:14:35.218Z,4.43
2023-02-28T11:15:37.851Z,4.35
2023-02-28T11:16:40.545Z,4.40
2023-02-28T11:17:45.007Z,4.20
2023-02-28T11:18:50.938Z,4.18
2023-02-28T11:19:58.016Z,3.90
2023-02-28T11:21:03.733Z,4.43
2023-02-28T11:22:10.292Z,4.20
2023-02-28T11:23:14.679Z,4.47
2023-02-28T11:24:24.994Z,4.32
2023-02-28T11:25:32.051Z,4.05
2023-02-28T11:26:40.316Z,4.60
2023-02-28T11:27:49.379Z,4.32
2023-02-28T11:29:10.945Z,4.97
2023-02-28T11:30:33.786Z,4.53
2023-02-28T11:31:36.430Z,4.70
2023-02-28T11:32:38.726Z,4.07
2023-02-28T11:33:45.874Z,4.10
2023-02-28T11:35:01.932Z,4.38
2023-02-28T11:36:10.936Z,4.03
2023-02-28T11:37:16.713Z,4.50
2023-02-28T11:38:18.581Z,4.25
2023-02-28T11:39:21.576Z,4.78
2023-02-28T11:40:32.103Z,4.57
2023-02-28T11:41:59.976Z,4.63
2023-02-28T11:43:14.900Z,4.05
2023-02-28T11:44:37.216Z,4.63
2023-02-28T11:45:50.543Z,4.78
2023-02-28T11:46:56.559Z,4.78
2023-02-28T11:48:07.248Z,4.80
2023-02-28T11:49:32.092Z,3.75
2023-02-28T11:50:48.738Z,4.82
2023-02-28T11:51:57.896Z,4.65
2023-02-28T11:53:03.155Z,4.78
2023-02-28T11:54:32.756Z,4.70
2023-02-28T11:55:38.564Z,4.50
2023-02-28T11:56:45.713Z,5.35
2023-02-28T11:58:02.616Z,4.30
2023-02-28T11:59:29.772Z,4.60
2023-02-28T12:00:42.455Z,4.80
2023-02-28T12:02:04.822Z,5.15
2023-02-28T12:03:21.065Z,5.43
2023-02-28T12:04:32.806Z,4.65
2023-02-28T12:05:44.934Z,4.30
2023-02-28T12:06:54.500Z,6.90
2023-02-28T12:08:04.636Z,11.55
2023-02-28T12:09:22.572Z,8.75
2023-02-28T12:10:28.296Z,5.80
2023-02-28T12:11:42.816Z,5.90
2023-02-28T12:12:52.451Z,5.20
2023-02-28T12:14:05.632Z,4.75
2023-02-28T12:15:26.217Z,4.93
2023-02-28T12:16:38.771Z,5.05
2023-02-28T12:17:53.140Z,5.53
2023-02-28T12:19:08.699Z,5.13
2023-02-28T12:20:20.591Z,5.65
2023-02-28T12:21:32.447Z,5.90
2023-02-28T12:22:39.982Z,5.05
2023-02-28T12:23:57.962Z,5.50
2023-02-28T12:25:23.219Z,5.13
2023-02-28T12:26:34.057Z,5.90
2023-02-28T12:28:47.401Z,5.47
2023-02-28T12:29:53.219Z,5.18
2023-02-28T12:31:02.324Z,5.57
2023-02-28T12:32:08.956Z,5.40
2023-02-28T12:33:16.388Z,4.72
2023-02-28T12:34:21.578Z,4.80
2023-02-28T12:35:28.008Z,6.13
2023-02-28T12:36:31.230Z,5.55
2023-02-28T12:37:39.364Z,4.82
2023-02-28T12:38:44.490Z,5.18
2023-02-28T12:39:51.175Z,5.32
2023-02-28T12:40:56.186Z,6.00
2023-02-28T12:42:04.244Z,5.28
2023-02-28T12:43:10.375Z,5.35
2023-02-28T12:44:19.457Z,4.78
2023-02-28T12:45:24.580Z,4.88
2023-02-28T12:46:34.818Z,5.18
2023-02-28T12:47:37.861Z,4.50
2023-02-28T12:48:44.430Z,5.22
2023-02-28T12:49:51.281Z,5.43
2023-02-28T12:50:53.015Z,4.78
2023-02-28T12:51:55.851Z,5.45
2023-02-28T12:53:02.039Z,4.18
2023-02-28T12:54:15.994Z,5.75
2023-02-28T12:55:26.176Z,5.05
2023-02-28T12:56:40.494Z,4.82
2023-02-28T12:57:51.062Z,5.13
2023-02-28T12:58:59.158Z,4.05
2023-02-28T13:00:05.293Z,5.65
2023-02-28T13:01:31.976Z,5.03
2023-02-28T13:03:04.644Z,4.82
2023-02-28T13:04:31.805Z,4.80
2023-02-28T13:05:56.704Z,5.10
2023-02-28T13:07:14.472Z,5.20
2023-02-28T13:08:35.431Z,5.03
2023-02-28T13:10:43.765Z,5.88
2023-02-28T13:11:47.680Z,5.38
2023-02-28T13:12:50.956Z,5.40
2023-02-28T13:14:00.968Z,5.78
2023-02-28T13:15:12.375Z,5.50
2023-02-28T13:16:18.067Z,5.72
2023-02-28T13:17:22.139Z,5.47
2023-02-28T13:18:33.970Z,5.82
2023-02-28T13:19:42.609Z,5.43
2023-02-28T13:20:50.594Z,5.35
2023-02-28T13:21:54.048Z,5.38
2023-02-28T13:22:57.742Z,5.22
2023-02-28T13:24:03.205Z,5.32
2023-02-28T13:25:50.543Z,5.28
2023-02-28T13:27:14.367Z,5.50
2023-02-28T13:29:10.974Z,5.72
2023-02-28T13:30:52.545Z,5.65
2023-02-28T13:32:44.326Z,6.07
2023-02-28T13:34:15.238Z,5.20
2023-02-28T13:35:41.924Z,6.18
2023-02-28T13:36:44.647Z,5.70
2023-02-28T13:37:50.846Z,5.97
2023-02-28T13:38:54.998Z,5.78
2023-02-28T13:39:57.541Z,6.50
2023-02-28T13:41:39.489Z,5.60
2023-02-28T13:42:53.583Z,6.03
2023-02-28T13:44:05.051Z,6.40
2023-02-28T13:45:24.734Z,6.25
2023-02-28T13:46:26.422Z,5.90
2023-02-28T13:47:33.502Z,6.22
2023-02-28T13:48:38.772Z,5.90
2023-02-28T13:49:42.163Z,5.93
2023-02-28T13:50:45.166Z,6.10
2023-02-28T13:51:49.638Z,5.78
2023-02-28T13:53:04.667Z,6.20
2023-02-28T13:54:21.299Z,5.90
2023-02-28T13:55:40.710Z,6.05
2023-02-28T13:56:52.041Z,5.85
2023-02-28T13:58:13.679Z,6.55
2023-02-28T13:59:27.209Z,6.72
2023-02-28T14:00:43.696Z,5.85
2023-02-28T14:01:57.292Z,6.75
2023-02-28T14:03:24.986Z,6.65
2023-02-28T14:04:55.434Z,6.88
2023-02-28T14:06:16.708Z,6.25
2023-02-28T14:07:24.646Z,6.15
2023-02-28T14:08:26.387Z,6.18
2023-02-28T14:09:34.220Z,6.63
2023-02-28T14:10:42.390Z,6.10
2023-02-28T14:11:45.425Z,6.03
2023-02-28T14:13:06.414Z,6.25
2023-02-28T14:15:43.967Z,6.63
2023-02-28T14:16:48.931Z,7.15
2023-02-28T14:17:52.620Z,6.90
2023-02-28T14:18:59.998Z,6.95
2023-02-28T14:20:04.850Z,6.65
2023-02-28T14:21:18.580Z,6.95
2023-02-28T14:22:42.783Z,7.82
2023-02-28T14:24:12.668Z,10.18
2023-02-28T14:25:25.875Z,7.03
2023-02-28T14:26:52.300Z,6.63
2023-02-28T14:28:06.239Z,6.57
2023-02-28T14:29:28.525Z,6.82
2023-02-28T14:31:02.512Z,6.78
2023-02-28T14:32:15.340Z,12.93
2023-02-28T14:34:07.440Z,9.80
2023-02-28T14:35:21.424Z,9.02
2023-02-28T14:36:31.338Z,13.38
2023-02-28T14:37:37.373Z,8.20
2023-02-28T14:38:45.372Z,12.38
2023-02-28T14:39:48.883Z,11.90
2023-02-28T14:40:53.395Z,9.48
2023-02-28T14:41:56.050Z,11.88
2023-02-28T14:43:00.655Z,8.00
2023-02-28T14:44:05.718Z,7.35
2023-02-28T14:45:19.689Z,7.32
2023-02-28T14:46:24.799Z,7.07
2023-02-28T14:47:31.730Z,7.63
2023-02-28T14:48:37.010Z,7.22
2023-02-28T14:49:46.578Z,6.65
2023-02-28T14:50:54.745Z,7.70
2023-02-28T14:52:10.910Z,8.75